createdAt,value
2019-03-15T00:00:15.914Z,5.77
2019-03-15T00:00:48.986Z,5.77
2019-03-15T00:01:22.092Z,5.78
2019-03-15T00:01:55.399Z,5.78
2019-03-15T00:02:26.940Z,5.68
2019-03-15T00:02:58.095Z,5.79
2019-03-15T00:03:29.316Z,5.79
2019-03-15T00:04:00.502Z,5.79
2019-03-15T00:04:31.709Z,5.79
2019-03-15T00:05:04.306Z,5.79
2019-03-15T00:05:35.553Z,5.61
2019-03-15T00:06:06.825Z,5.70
2019-03-15T00:06:38.068Z,5.70
2019-03-15T00:07:09.294Z,5.80
2019-03-15T00:07:41.279Z,5.63
2019-03-15T00:08:12.568Z,5.80
2019-03-15T00:08:43.792Z,5.80
2019-03-15T00:09:15.031Z,5.80
2019-03-15T00:09:46.281Z,5.83
2019-03-15T00:10:17.508Z,5.83
2019-03-15T00:10:48.665Z,5.83
2019-03-15T00:11:19.878Z,5.84
2019-03-15T00:11:51.039Z,5.76
2019-03-15T00:12:22.257Z,5.72
2019-03-15T00:12:54.391Z,5.73
2019-03-15T00:13:25.599Z,5.75
2019-03-15T00:13:56.759Z,5.84
2019-03-15T00:14:27.974Z,5.84
2019-03-15T00:14:59.243Z,5.74
2019-03-15T00:15:30.474Z,5.74
2019-03-15T00:16:01.631Z,5.82
2019-03-15T00:16:32.855Z,5.83
2019-03-15T00:17:04.011Z,5.83
2019-03-15T00:17:35.251Z,5.82
2019-03-15T00:18:06.667Z,5.83
2019-03-15T00:18:37.897Z,5.82
2019-03-15T00:19:09.059Z,5.81
2019-03-15T00:19:40.309Z,5.80
2019-03-15T00:20:11.567Z,5.80
2019-03-15T00:20:42.793Z,5.81
2019-03-15T00:21:13.955Z,5.73
2019-03-15T00:21:45.174Z,5.73
2019-03-15T00:22:16.339Z,5.63
2019-03-15T00:22:47.541Z,5.76
2019-03-15T00:23:18.696Z,5.68
2019-03-15T00:23:49.909Z,5.88
2019-03-15T00:24:21.064Z,5.88
2019-03-15T00:24:52.263Z,5.88
2019-03-15T00:25:23.474Z,5.88
2019-03-15T00:25:55.412Z,5.86
2019-03-15T00:26:27.048Z,5.75
2019-03-15T00:26:58.229Z,5.85
2019-03-15T00:27:29.390Z,5.85
2019-03-15T00:28:00.609Z,5.88
2019-03-15T00:28:31.771Z,5.80
2019-03-15T00:29:02.985Z,5.80
2019-03-15T00:29:34.138Z,5.90
2019-03-15T00:30:10.164Z,5.89
2019-03-15T00:30:41.421Z,5.88
2019-03-15T00:31:12.638Z,5.88
2019-03-15T00:31:43.784Z,5.89
2019-03-15T00:32:14.985Z,5.89
2019-03-15T00:32:46.144Z,5.89
2019-03-15T00:33:17.363Z,5.89
2019-03-15T00:33:48.505Z,5.82
2019-03-15T00:34:19.708Z,5.92
2019-03-15T00:34:50.865Z,5.84
2019-03-15T00:35:22.091Z,5.93
2019-03-15T00:35:53.482Z,5.93
2019-03-15T00:36:24.694Z,5.87
2019-03-15T00:36:55.841Z,5.87
2019-03-15T00:37:27.074Z,5.98
2019-03-15T00:37:58.232Z,6.01
2019-03-15T00:38:29.467Z,6.02
2019-03-15T00:39:00.635Z,6.03
2019-03-15T00:39:31.843Z,6.01
2019-03-15T00:40:09.205Z,6.01
2019-03-15T00:40:40.395Z,6.01
2019-03-15T00:41:11.574Z,6.01
2019-03-15T00:41:42.737Z,5.95
2019-03-15T00:42:13.968Z,5.96
2019-03-15T00:42:45.131Z,5.94
2019-03-15T00:43:17.343Z,5.94
2019-03-15T00:43:49.648Z,5.92
2019-03-15T00:44:21.112Z,5.90
2019-03-15T00:44:52.276Z,5.80
2019-03-15T00:45:23.907Z,5.80
2019-03-15T00:45:55.095Z,5.87
2019-03-15T00:46:26.339Z,5.88
2019-03-15T00:46:57.499Z,5.88
2019-03-15T00:47:28.718Z,5.92
2019-03-15T00:47:59.888Z,5.92
2019-03-15T00:48:31.112Z,5.91
2019-03-15T00:49:02.271Z,5.92
2019-03-15T00:49:33.492Z,5.84
2019-03-15T00:50:07.959Z,5.93
2019-03-15T00:50:39.192Z,5.93
2019-03-15T00:51:10.392Z,5.92
2019-03-15T00:51:41.624Z,5.92
2019-03-15T00:52:12.912Z,5.84
2019-03-15T00:52:44.152Z,5.84
2019-03-15T00:53:15.396Z,5.88
2019-03-15T00:53:46.612Z,5.88
2019-03-15T00:54:17.845Z,5.94
2019-03-15T00:54:49.074Z,5.92
2019-03-15T00:55:20.296Z,5.83
2019-03-15T00:55:52.450Z,5.83
2019-03-15T00:56:23.662Z,5.84
2019-03-15T00:56:54.824Z,5.80
2019-03-15T00:57:26.340Z,5.80
2019-03-15T00:57:57.517Z,5.89
2019-03-15T00:58:28.731Z,5.88
2019-03-15T00:58:59.888Z,5.79
2019-03-15T00:59:31.121Z,5.88
2019-03-15T01:00:06.477Z,5.89
2019-03-15T01:00:37.693Z,5.89
2019-03-15T01:01:09.111Z,5.88
2019-03-15T01:01:40.318Z,5.89
2019-03-15T01:02:11.544Z,5.90
2019-03-15T01:02:44.176Z,5.89
2019-03-15T01:03:15.663Z,5.89
2019-03-15T01:03:46.899Z,5.89
2019-03-15T01:04:18.064Z,5.89
2019-03-15T01:04:49.267Z,5.81
2019-03-15T01:05:20.433Z,5.91
2019-03-15T01:05:51.645Z,5.81
2019-03-15T01:06:22.881Z,5.82
2019-03-15T01:06:54.063Z,5.93
2019-03-15T01:07:25.239Z,5.93
2019-03-15T01:07:56.435Z,5.97
2019-03-15T01:08:27.629Z,5.97
2019-03-15T01:08:58.802Z,5.98
2019-03-15T01:09:30.007Z,5.98
2019-03-15T01:10:01.195Z,5.86
2019-03-15T01:10:32.371Z,5.86
2019-03-15T01:11:03.547Z,5.97
2019-03-15T01:11:34.747Z,5.98
2019-03-15T01:12:06.033Z,6.00
2019-03-15T01:12:37.228Z,6.00
2019-03-15T01:13:08.457Z,5.98
2019-03-15T01:13:39.665Z,5.97
2019-03-15T01:14:10.865Z,5.94
2019-03-15T01:14:42.048Z,5.95
2019-03-15T01:15:13.236Z,5.95
2019-03-15T01:15:44.417Z,5.95
2019-03-15T01:16:15.604Z,5.93
2019-03-15T01:16:46.809Z,5.95
2019-03-15T01:17:17.992Z,5.96
2019-03-15T01:17:49.168Z,5.96
2019-03-15T01:18:20.348Z,5.95
2019-03-15T01:18:51.542Z,5.86
2019-03-15T01:19:22.721Z,5.96
2019-03-15T01:19:53.990Z,5.96
2019-03-15T01:20:25.183Z,5.95
2019-03-15T01:20:56.428Z,5.95
2019-03-15T01:21:27.610Z,5.95
2019-03-15T01:21:58.798Z,5.95
2019-03-15T01:22:29.975Z,5.97
2019-03-15T01:23:01.152Z,5.94
2019-03-15T01:23:32.422Z,5.99
2019-03-15T01:24:03.616Z,5.89
2019-03-15T01:24:34.804Z,5.98
2019-03-15T01:25:07.068Z,5.98
2019-03-15T01:25:38.267Z,5.96
2019-03-15T01:26:09.427Z,5.97
2019-03-15T01:26:40.614Z,5.89
2019-03-15T01:27:11.805Z,5.90
2019-03-15T01:27:42.994Z,5.90
2019-03-15T01:28:14.179Z,6.00
2019-03-15T01:28:45.401Z,6.00
2019-03-15T01:29:16.668Z,6.00
2019-03-15T01:29:47.843Z,6.00
2019-03-15T01:30:19.044Z,6.00
2019-03-15T01:30:50.279Z,6.00
2019-03-15T01:31:21.573Z,6.00
2019-03-15T01:31:52.750Z,6.00
2019-03-15T01:32:24.049Z,6.04
2019-03-15T01:32:55.227Z,6.04
2019-03-15T01:33:26.415Z,6.02
2019-03-15T01:33:57.610Z,6.03
2019-03-15T01:34:28.795Z,5.91
2019-03-15T01:35:00.160Z,5.91
2019-03-15T01:35:33.547Z,5.91
2019-03-15T01:36:04.600Z,5.90
2019-03-15T01:36:35.822Z,5.90
2019-03-15T01:37:07.015Z,5.99
2019-03-15T01:37:38.225Z,5.93
2019-03-15T01:38:09.381Z,5.87
2019-03-15T01:38:40.691Z,5.93
2019-03-15T01:39:11.854Z,5.86
2019-03-15T01:39:43.078Z,5.95
2019-03-15T01:40:15.146Z,5.98
2019-03-15T01:40:48.873Z,5.98
2019-03-15T01:41:19.458Z,5.89
2019-03-15T01:41:50.669Z,5.99
2019-03-15T01:42:22.251Z,5.99
2019-03-15T01:42:53.546Z,6.02
2019-03-15T01:43:24.718Z,6.02
2019-03-15T01:43:56.316Z,6.02
2019-03-15T01:44:27.472Z,5.92
2019-03-15T01:44:58.656Z,5.92
2019-03-15T01:45:29.817Z,6.03
2019-03-15T01:46:01.043Z,6.03
2019-03-15T01:46:32.221Z,6.02
2019-03-15T01:47:03.499Z,5.93
2019-03-15T01:47:34.661Z,5.92
2019-03-15T01:48:05.893Z,6.02
2019-03-15T01:48:37.050Z,6.00
2019-03-15T01:49:08.678Z,5.99
2019-03-15T01:49:39.923Z,5.88
2019-03-15T01:50:11.144Z,5.98
2019-03-15T01:50:42.280Z,5.98
2019-03-15T01:51:13.503Z,5.93
2019-03-15T01:51:44.653Z,5.93
2019-03-15T01:52:15.899Z,5.83
2019-03-15T01:52:47.064Z,5.83
2019-03-15T01:53:18.272Z,5.86
2019-03-15T01:53:49.436Z,5.94
2019-03-15T01:54:20.649Z,5.94
2019-03-15T01:54:51.807Z,5.85
2019-03-15T01:55:23.006Z,5.94
2019-03-15T01:55:54.226Z,5.94
2019-03-15T01:56:25.437Z,5.85
2019-03-15T01:56:56.645Z,5.85
2019-03-15T01:57:27.838Z,5.95
2019-03-15T01:57:59.014Z,5.95
2019-03-15T01:58:30.214Z,5.87
2019-03-15T01:59:01.397Z,5.95
2019-03-15T01:59:32.617Z,5.95
2019-03-15T02:00:08.349Z,5.94
2019-03-15T02:00:39.538Z,5.85
2019-03-15T02:01:10.837Z,5.94
2019-03-15T02:01:42.073Z,5.95
2019-03-15T02:02:13.364Z,5.95
2019-03-15T02:02:44.558Z,5.92
2019-03-15T02:03:15.740Z,5.91
2019-03-15T02:03:46.945Z,5.92
2019-03-15T02:04:18.131Z,5.92
2019-03-15T02:04:49.812Z,5.90
2019-03-15T02:05:21.007Z,5.91
2019-03-15T02:05:52.191Z,5.92
2019-03-15T02:06:23.400Z,5.91
2019-03-15T02:06:55.604Z,5.91
2019-03-15T02:07:27.183Z,5.92
2019-03-15T02:07:58.372Z,5.90
2019-03-15T02:08:29.638Z,5.92
2019-03-15T02:09:00.887Z,5.92
2019-03-15T02:09:32.076Z,5.84
2019-03-15T02:10:06.678Z,5.84
2019-03-15T02:10:37.874Z,5.84
2019-03-15T02:11:09.092Z,5.93
2019-03-15T02:11:40.276Z,5.84
2019-03-15T02:12:11.484Z,5.95
2019-03-15T02:12:42.621Z,5.85
2019-03-15T02:13:13.816Z,5.85
2019-03-15T02:13:44.983Z,5.90
2019-03-15T02:14:16.206Z,5.94
2019-03-15T02:14:47.369Z,5.94
2019-03-15T02:15:18.739Z,5.96
2019-03-15T02:15:49.953Z,5.96
2019-03-15T02:16:21.187Z,5.93
2019-03-15T02:16:52.359Z,5.92
2019-03-15T02:17:23.955Z,5.92
2019-03-15T02:17:55.120Z,5.93
2019-03-15T02:18:26.393Z,5.93
2019-03-15T02:18:57.557Z,5.93
2019-03-15T02:19:28.767Z,5.84
2019-03-15T02:19:59.918Z,5.84
2019-03-15T02:20:31.127Z,5.93
2019-03-15T02:21:02.281Z,5.93
2019-03-15T02:21:33.491Z,5.91
2019-03-15T02:22:04.659Z,5.90
2019-03-15T02:22:35.976Z,5.90
2019-03-15T02:23:07.136Z,5.86
2019-03-15T02:23:39.367Z,5.86
2019-03-15T02:24:10.573Z,5.86
2019-03-15T02:24:41.857Z,5.86
2019-03-15T02:25:13.036Z,5.77
2019-03-15T02:25:44.306Z,5.85
2019-03-15T02:26:15.495Z,5.86
2019-03-15T02:26:46.655Z,5.86
2019-03-15T02:27:17.840Z,5.87
2019-03-15T02:27:49.026Z,5.87
2019-03-15T02:28:20.213Z,5.88
2019-03-15T02:28:51.395Z,5.79
2019-03-15T02:29:22.598Z,5.80
2019-03-15T02:29:54.159Z,5.90
2019-03-15T02:30:25.361Z,5.91
2019-03-15T02:30:56.545Z,5.93
2019-03-15T02:31:27.733Z,5.93
2019-03-15T02:31:58.932Z,5.93
2019-03-15T02:32:30.109Z,5.93
2019-03-15T02:33:01.290Z,5.93
2019-03-15T02:33:33.484Z,5.93
2019-03-15T02:34:05.073Z,5.93
2019-03-15T02:34:36.254Z,5.93
2019-03-15T02:35:07.429Z,5.82
2019-03-15T02:35:38.608Z,5.90
2019-03-15T02:36:09.815Z,5.89
2019-03-15T02:36:40.994Z,5.88
2019-03-15T02:37:12.219Z,5.78
2019-03-15T02:37:43.404Z,5.78
2019-03-15T02:38:14.591Z,5.84
2019-03-15T02:38:45.875Z,5.84
2019-03-15T02:39:18.077Z,5.84
2019-03-15T02:39:49.262Z,5.86
2019-03-15T02:40:21.396Z,5.86
2019-03-15T02:40:52.639Z,5.86
2019-03-15T02:41:24.160Z,5.85
2019-03-15T02:41:55.463Z,5.85
2019-03-15T02:42:27.140Z,5.74
2019-03-15T02:42:58.334Z,5.84
2019-03-15T02:43:29.548Z,5.77
2019-03-15T02:44:00.705Z,5.88
2019-03-15T02:44:31.911Z,5.79
2019-03-15T02:45:03.787Z,5.79
2019-03-15T02:45:35.111Z,5.90
2019-03-15T02:46:06.290Z,5.80
2019-03-15T02:46:37.613Z,5.91
2019-03-15T02:47:08.763Z,5.91
2019-03-15T02:47:39.980Z,5.91
2019-03-15T02:48:11.272Z,5.80
2019-03-15T02:48:42.543Z,5.90
2019-03-15T02:49:13.713Z,5.81
2019-03-15T02:49:44.949Z,5.81
2019-03-15T02:50:16.119Z,5.89
2019-03-15T02:50:47.343Z,5.89
2019-03-15T02:51:18.527Z,5.89
2019-03-15T02:51:50.039Z,5.89
2019-03-15T02:52:21.372Z,5.79
2019-03-15T02:52:52.573Z,5.90
2019-03-15T02:53:23.735Z,5.86
2019-03-15T02:53:54.971Z,5.89
2019-03-15T02:54:27.318Z,5.89
2019-03-15T02:54:58.684Z,5.88
2019-03-15T02:55:29.881Z,5.80
2019-03-15T02:56:01.072Z,5.80
2019-03-15T02:56:32.281Z,5.88
2019-03-15T02:57:03.461Z,5.88
2019-03-15T02:57:35.475Z,5.89
2019-03-15T02:58:07.124Z,5.92
2019-03-15T02:58:38.281Z,5.86
2019-03-15T02:59:09.462Z,5.99
2019-03-15T02:59:40.655Z,5.90
2019-03-15T03:00:11.875Z,6.02
2019-03-15T03:00:43.034Z,6.02
2019-03-15T03:01:14.226Z,5.98
2019-03-15T03:01:45.378Z,5.92
2019-03-15T03:02:16.547Z,6.03
2019-03-15T03:02:47.776Z,6.03
2019-03-15T03:03:18.999Z,6.05
2019-03-15T03:03:50.167Z,6.05
2019-03-15T03:04:21.354Z,6.05
2019-03-15T03:04:52.531Z,6.06
2019-03-15T03:05:23.890Z,6.06
2019-03-15T03:05:55.072Z,6.08
2019-03-15T03:06:27.504Z,6.08
2019-03-15T03:07:00.252Z,6.08
2019-03-15T03:07:31.433Z,6.13
2019-03-15T03:08:02.601Z,6.13
2019-03-15T03:08:33.760Z,6.03
2019-03-15T03:09:04.972Z,6.12
2019-03-15T03:09:36.236Z,6.12
2019-03-15T03:10:07.429Z,6.10
2019-03-15T03:10:38.590Z,6.08
2019-03-15T03:11:09.811Z,6.07
2019-03-15T03:11:40.960Z,6.07
2019-03-15T03:12:12.188Z,6.05
2019-03-15T03:12:44.022Z,5.95
2019-03-15T03:13:15.468Z,6.03
2019-03-15T03:13:46.624Z,6.03
2019-03-15T03:14:17.823Z,6.01
2019-03-15T03:14:48.989Z,6.05
2019-03-15T03:15:20.235Z,6.02
2019-03-15T03:15:52.112Z,6.02
2019-03-15T03:16:23.507Z,5.92
2019-03-15T03:16:54.790Z,6.00
2019-03-15T03:17:26.365Z,5.98
2019-03-15T03:17:57.583Z,5.96
2019-03-15T03:18:28.776Z,5.94
2019-03-15T03:19:01.256Z,5.95
2019-03-15T03:19:32.648Z,5.94
2019-03-15T03:20:05.642Z,5.86
2019-03-15T03:20:36.980Z,5.96
2019-03-15T03:21:08.200Z,5.96
2019-03-15T03:21:39.380Z,6.00
2019-03-15T03:22:10.567Z,6.00
2019-03-15T03:22:41.815Z,5.94
2019-03-15T03:23:13.264Z,6.00
2019-03-15T03:23:44.435Z,6.00
2019-03-15T03:24:15.649Z,5.97
2019-03-15T03:24:47.157Z,5.95
2019-03-15T03:25:18.401Z,5.98
2019-03-15T03:25:49.625Z,5.98
2019-03-15T03:26:20.792Z,5.88
2019-03-15T03:26:52.066Z,5.88
2019-03-15T03:27:23.489Z,5.90
2019-03-15T03:27:54.669Z,5.91
2019-03-15T03:28:25.877Z,5.89
2019-03-15T03:28:57.158Z,6.01
2019-03-15T03:29:28.400Z,6.01
2019-03-15T03:29:59.589Z,5.98
2019-03-15T03:30:30.821Z,6.03
2019-03-15T03:31:02.018Z,6.03
2019-03-15T03:31:33.318Z,5.92
2019-03-15T03:32:04.548Z,6.00
2019-03-15T03:32:35.714Z,5.97
2019-03-15T03:33:06.962Z,5.94
2019-03-15T03:33:40.457Z,5.94
2019-03-15T03:34:12.677Z,5.93
2019-03-15T03:34:44.137Z,5.93
2019-03-15T03:35:15.299Z,5.92
2019-03-15T03:35:46.557Z,5.92
2019-03-15T03:36:17.735Z,5.84
2019-03-15T03:36:48.879Z,5.84
2019-03-15T03:37:20.057Z,5.87
2019-03-15T03:37:51.227Z,5.87
2019-03-15T03:38:22.399Z,5.98
2019-03-15T03:38:53.880Z,5.98
2019-03-15T03:39:25.094Z,5.88
2019-03-15T03:39:56.260Z,5.88
2019-03-15T03:40:29.088Z,5.98
2019-03-15T03:41:00.915Z,5.98
2019-03-15T03:41:32.161Z,5.95
2019-03-15T03:42:03.383Z,5.97
2019-03-15T03:42:34.633Z,5.79
2019-03-15T03:43:05.889Z,5.94
2019-03-15T03:43:37.116Z,5.93
2019-03-15T03:44:08.268Z,5.93
2019-03-15T03:44:39.478Z,5.92
2019-03-15T03:45:10.654Z,5.90
2019-03-15T03:45:41.876Z,5.90
2019-03-15T03:46:13.036Z,5.89
2019-03-15T03:46:44.249Z,5.88
2019-03-15T03:47:15.409Z,5.86
2019-03-15T03:47:47.608Z,5.76
2019-03-15T03:48:18.795Z,5.85
2019-03-15T03:48:50.026Z,5.74
2019-03-15T03:49:21.258Z,5.74
2019-03-15T03:49:53.552Z,5.82
2019-03-15T03:50:24.876Z,5.81
2019-03-15T03:50:59.725Z,5.81
2019-03-15T03:51:29.636Z,5.81
2019-03-15T03:52:00.917Z,5.72
2019-03-15T03:52:32.208Z,5.79
2019-03-15T03:53:03.441Z,5.79
2019-03-15T03:53:34.676Z,5.79
2019-03-15T03:54:05.834Z,5.75
2019-03-15T03:54:37.041Z,5.77
2019-03-15T03:55:08.190Z,5.77
2019-03-15T03:55:39.405Z,5.78
2019-03-15T03:56:10.736Z,5.75
2019-03-15T03:56:41.929Z,5.75
2019-03-15T03:57:13.154Z,5.75
2019-03-15T03:57:44.299Z,5.75
2019-03-15T03:58:15.461Z,5.75
2019-03-15T03:58:46.649Z,5.75
2019-03-15T03:59:17.807Z,5.75
2019-03-15T03:59:48.971Z,5.73
2019-03-15T04:00:20.157Z,5.63
2019-03-15T04:00:51.451Z,5.74
2019-03-15T04:01:22.599Z,5.74
2019-03-15T04:01:54.038Z,5.76
2019-03-15T04:02:25.199Z,5.76
2019-03-15T04:02:56.381Z,5.77
2019-03-15T04:03:27.734Z,5.76
2019-03-15T04:03:58.909Z,5.75
2019-03-15T04:04:30.087Z,5.77
2019-03-15T04:05:01.296Z,5.76
2019-03-15T04:05:32.457Z,5.76
2019-03-15T04:06:03.651Z,5.76
2019-03-15T04:06:34.827Z,5.75
2019-03-15T04:07:05.985Z,5.75
2019-03-15T04:07:37.168Z,5.75
2019-03-15T04:08:08.350Z,5.75
2019-03-15T04:08:39.524Z,5.77
2019-03-15T04:09:10.679Z,5.78
2019-03-15T04:09:41.896Z,5.79
2019-03-15T04:10:13.150Z,5.79
2019-03-15T04:10:44.346Z,5.74
2019-03-15T04:11:15.522Z,5.79
2019-03-15T04:11:55.377Z,5.79
2019-03-15T04:12:19.794Z,5.70
2019-03-15T04:12:51.022Z,5.77
2019-03-15T04:13:22.182Z,5.77
2019-03-15T04:13:53.484Z,5.70
2019-03-15T04:14:24.693Z,5.76
2019-03-15T04:14:55.887Z,5.76
2019-03-15T04:15:27.057Z,5.70
2019-03-15T04:15:58.310Z,5.73
2019-03-15T04:16:29.479Z,5.73
2019-03-15T04:17:00.682Z,5.73
2019-03-15T04:17:31.829Z,5.72
2019-03-15T04:18:06.280Z,5.65
2019-03-15T04:18:36.133Z,5.71
2019-03-15T04:19:07.316Z,5.70
2019-03-15T04:19:38.511Z,5.70
2019-03-15T04:20:11.197Z,5.70
2019-03-15T04:20:42.549Z,5.70
2019-03-15T04:21:13.873Z,5.68
2019-03-15T04:21:46.073Z,5.67
2019-03-15T04:22:17.251Z,5.66
2019-03-15T04:22:48.459Z,5.66
2019-03-15T04:23:19.671Z,5.54
2019-03-15T04:23:50.871Z,5.54
2019-03-15T04:24:22.106Z,5.62
2019-03-15T04:24:53.484Z,5.59
2019-03-15T04:25:24.713Z,5.59
2019-03-15T04:25:57.867Z,5.50
2019-03-15T04:26:29.098Z,5.50
2019-03-15T04:27:00.280Z,5.59
2019-03-15T04:27:31.595Z,5.60
2019-03-15T04:28:02.760Z,5.49
2019-03-15T04:28:33.961Z,5.47
2019-03-15T04:29:05.144Z,5.47
2019-03-15T04:29:36.347Z,5.56
2019-03-15T04:30:10.429Z,5.56
2019-03-15T04:30:41.627Z,5.54
2019-03-15T04:31:12.816Z,5.54
2019-03-15T04:31:44.080Z,5.53
2019-03-15T04:32:15.276Z,5.51
2019-03-15T04:32:46.457Z,5.51
2019-03-15T04:33:18.695Z,5.50
2019-03-15T04:33:50.028Z,5.50
2019-03-15T04:34:21.264Z,5.44
2019-03-15T04:34:52.480Z,5.47
2019-03-15T04:35:23.846Z,5.47
2019-03-15T04:35:55.036Z,5.47
2019-03-15T04:36:26.208Z,5.46
2019-03-15T04:36:57.417Z,5.44
2019-03-15T04:37:28.608Z,5.44
2019-03-15T04:37:59.824Z,5.41
2019-03-15T04:38:31.002Z,5.36
2019-03-15T04:39:03.908Z,5.36
2019-03-15T04:39:35.089Z,5.37
2019-03-15T04:40:10.384Z,5.37
2019-03-15T04:40:43.228Z,5.46
2019-03-15T04:41:14.436Z,5.45
2019-03-15T04:41:45.615Z,5.45
2019-03-15T04:42:16.832Z,5.40
2019-03-15T04:42:48.001Z,5.42
2019-03-15T04:43:20.240Z,5.43
2019-03-15T04:43:51.501Z,5.43
2019-03-15T04:44:22.739Z,5.42
2019-03-15T04:44:53.896Z,5.43
2019-03-15T04:45:25.125Z,5.43
2019-03-15T04:45:56.267Z,5.42
2019-03-15T04:46:27.470Z,5.43
2019-03-15T04:46:58.638Z,5.43
2019-03-15T04:47:29.865Z,5.30
2019-03-15T04:48:01.051Z,5.39
2019-03-15T04:48:32.249Z,5.39
2019-03-15T04:49:03.439Z,5.34
2019-03-15T04:49:34.651Z,5.38
2019-03-15T04:50:06.443Z,5.37
2019-03-15T04:50:37.620Z,5.37
2019-03-15T04:51:08.837Z,5.35
2019-03-15T04:51:40.125Z,5.25
2019-03-15T04:52:11.322Z,5.34
2019-03-15T04:52:42.507Z,5.34
2019-03-15T04:53:13.687Z,5.32
2019-03-15T04:53:44.843Z,5.32
2019-03-15T04:54:16.038Z,5.33
2019-03-15T04:54:47.234Z,5.25
2019-03-15T04:55:18.439Z,5.35
2019-03-15T04:55:49.625Z,5.35
2019-03-15T04:56:20.807Z,5.24
2019-03-15T04:56:51.987Z,5.21
2019-03-15T04:57:23.159Z,5.31
2019-03-15T04:57:54.370Z,5.31
2019-03-15T04:58:25.526Z,5.31
2019-03-15T04:58:56.772Z,5.32
2019-03-15T04:59:27.964Z,5.30
2019-03-15T04:59:59.133Z,5.30
2019-03-15T05:00:30.302Z,5.31
2019-03-15T05:01:01.505Z,5.28
2019-03-15T05:01:32.672Z,5.27
2019-03-15T05:02:03.845Z,5.27
2019-03-15T05:02:35.029Z,5.20
2019-03-15T05:03:06.199Z,5.18
2019-03-15T05:03:37.372Z,5.28
2019-03-15T05:04:08.562Z,5.28
2019-03-15T05:04:39.758Z,5.20
2019-03-15T05:05:10.921Z,5.29
2019-03-15T05:05:42.138Z,5.29
2019-03-15T05:06:13.306Z,5.29
2019-03-15T05:06:44.548Z,5.29
2019-03-15T05:07:15.779Z,5.29
2019-03-15T05:07:46.985Z,5.28
2019-03-15T05:08:18.159Z,5.28
2019-03-15T05:08:49.383Z,5.19
2019-03-15T05:09:20.558Z,5.28
2019-03-15T05:09:51.742Z,5.28
2019-03-15T05:10:23.297Z,5.28
2019-03-15T05:10:54.544Z,5.29
2019-03-15T05:11:25.744Z,5.29
2019-03-15T05:11:57.041Z,5.29
2019-03-15T05:12:28.244Z,5.29
2019-03-15T05:12:59.434Z,5.19
2019-03-15T05:13:30.625Z,5.27
2019-03-15T05:14:01.818Z,5.26
2019-03-15T05:14:33.005Z,5.26
2019-03-15T05:15:07.704Z,5.26
2019-03-15T05:15:38.893Z,5.14
2019-03-15T05:16:10.071Z,5.14
2019-03-15T05:16:41.255Z,5.24
2019-03-15T05:17:12.435Z,5.22
2019-03-15T05:17:43.616Z,5.22
2019-03-15T05:18:14.915Z,5.21
2019-03-15T05:18:46.116Z,5.11
2019-03-15T05:19:17.328Z,5.11
2019-03-15T05:19:48.592Z,5.04
2019-03-15T05:20:21.286Z,5.20
2019-03-15T05:20:52.711Z,5.20
2019-03-15T05:21:24.005Z,5.19
2019-03-15T05:21:55.193Z,5.17
2019-03-15T05:22:26.475Z,5.05
2019-03-15T05:22:57.727Z,5.05
2019-03-15T05:23:28.911Z,5.12
2019-03-15T05:24:00.095Z,5.06
2019-03-15T05:24:31.323Z,5.02
2019-03-15T05:25:04.479Z,5.12
2019-03-15T05:25:35.750Z,5.12
2019-03-15T05:26:06.918Z,5.00
2019-03-15T05:26:38.132Z,5.08
2019-03-15T05:27:09.318Z,5.08
2019-03-15T05:27:40.517Z,5.08
2019-03-15T05:28:11.722Z,5.05
2019-03-15T05:28:42.915Z,5.05
2019-03-15T05:29:14.095Z,5.05
2019-03-15T05:29:45.672Z,4.89
2019-03-15T05:30:16.821Z,5.04
2019-03-15T05:30:48.032Z,4.94
2019-03-15T05:31:19.192Z,4.94
2019-03-15T05:31:50.414Z,5.03
2019-03-15T05:32:21.574Z,5.03
2019-03-15T05:32:52.814Z,5.04
2019-03-15T05:33:23.966Z,5.01
2019-03-15T05:33:55.188Z,5.01
2019-03-15T05:34:26.416Z,5.01
2019-03-15T05:34:57.628Z,5.01
2019-03-15T05:35:28.796Z,5.00
2019-03-15T05:36:00.053Z,4.99
2019-03-15T05:36:31.232Z,4.98
2019-03-15T05:37:02.437Z,4.98
2019-03-15T05:37:33.615Z,4.96
2019-03-15T05:38:04.829Z,4.95
2019-03-15T05:38:36.019Z,4.95
2019-03-15T05:39:07.329Z,4.95
2019-03-15T05:39:39.812Z,4.95
2019-03-15T05:40:11.235Z,4.86
2019-03-15T05:40:42.535Z,4.86
2019-03-15T05:41:13.829Z,4.90
2019-03-15T05:41:45.075Z,4.92
2019-03-15T05:42:16.297Z,4.92
2019-03-15T05:42:47.540Z,4.86
2019-03-15T05:43:18.796Z,4.92
2019-03-15T05:43:52.987Z,4.94
2019-03-15T05:44:23.520Z,4.94
2019-03-15T05:44:55.228Z,4.83
2019-03-15T05:45:26.437Z,4.93
2019-03-15T05:45:57.651Z,4.93
2019-03-15T05:46:28.829Z,4.93
2019-03-15T05:47:00.043Z,4.84
2019-03-15T05:47:31.192Z,4.84
2019-03-15T05:48:02.405Z,4.94
2019-03-15T05:48:33.571Z,4.95
2019-03-15T05:49:04.783Z,4.88
2019-03-15T05:49:35.957Z,4.98
2019-03-15T05:50:10.983Z,4.98
2019-03-15T05:50:42.156Z,5.00
2019-03-15T05:51:13.363Z,4.99
2019-03-15T05:51:44.515Z,4.99
2019-03-15T05:52:15.775Z,5.01
2019-03-15T05:52:46.935Z,5.01
2019-03-15T05:53:18.146Z,4.95
2019-03-15T05:53:49.304Z,5.06
2019-03-15T05:54:20.516Z,5.06
2019-03-15T05:54:51.748Z,5.06
2019-03-15T05:55:23.289Z,4.98
2019-03-15T05:55:54.535Z,5.08
2019-03-15T05:56:25.770Z,5.08
2019-03-15T05:56:57.071Z,4.97
2019-03-15T05:57:28.275Z,5.08
2019-03-15T05:57:59.684Z,5.08
2019-03-15T05:58:30.864Z,5.08
2019-03-15T05:59:02.068Z,5.08
2019-03-15T05:59:33.246Z,5.08
2019-03-15T06:00:11.224Z,5.08
2019-03-15T06:00:42.381Z,5.09
2019-03-15T06:01:13.592Z,5.08
2019-03-15T06:01:44.746Z,5.09
2019-03-15T06:02:15.948Z,4.98
2019-03-15T06:02:47.108Z,5.10
2019-03-15T06:03:18.313Z,4.98
2019-03-15T06:03:49.520Z,5.08
2019-03-15T06:04:20.805Z,5.07
2019-03-15T06:04:52.094Z,5.07
2019-03-15T06:05:23.479Z,4.97
2019-03-15T06:05:54.673Z,5.07
2019-03-15T06:06:25.854Z,5.07
2019-03-15T06:06:58.035Z,4.95
2019-03-15T06:07:29.231Z,5.05
2019-03-15T06:08:00.417Z,5.05
2019-03-15T06:08:31.625Z,5.05
2019-03-15T06:09:04.606Z,5.05
2019-03-15T06:09:35.788Z,5.05
2019-03-15T06:10:11.489Z,4.94
2019-03-15T06:10:42.671Z,4.94
2019-03-15T06:11:13.861Z,5.02
2019-03-15T06:11:45.035Z,4.92
2019-03-15T06:12:16.218Z,4.92
2019-03-15T06:12:47.410Z,5.01
2019-03-15T06:13:18.595Z,5.04
2019-03-15T06:13:49.827Z,5.06
2019-03-15T06:14:21.075Z,5.06
2019-03-15T06:14:52.250Z,5.06
2019-03-15T06:15:23.443Z,5.05
2019-03-15T06:15:54.635Z,5.05
2019-03-15T06:16:25.820Z,5.05
2019-03-15T06:16:57.002Z,5.05
2019-03-15T06:17:28.209Z,5.05
2019-03-15T06:17:59.380Z,5.06
2019-03-15T06:18:30.557Z,5.06
2019-03-15T06:19:01.744Z,5.08
2019-03-15T06:19:32.936Z,5.08
2019-03-15T06:20:09.638Z,5.00
2019-03-15T06:20:40.948Z,5.12
2019-03-15T06:21:12.156Z,5.10
2019-03-15T06:21:43.337Z,5.10
2019-03-15T06:22:14.573Z,5.11
2019-03-15T06:22:45.796Z,5.03
2019-03-15T06:23:17.168Z,5.02
2019-03-15T06:23:48.353Z,4.97
2019-03-15T06:24:19.624Z,5.10
2019-03-15T06:24:50.788Z,5.11
2019-03-15T06:25:22.019Z,5.04
2019-03-15T06:25:54.279Z,5.14
2019-03-15T06:26:25.511Z,5.15
2019-03-15T06:26:56.748Z,5.16
2019-03-15T06:27:31.010Z,5.16
2019-03-15T06:28:01.131Z,5.16
2019-03-15T06:28:32.382Z,5.16
2019-03-15T06:29:03.569Z,5.18
2019-03-15T06:29:34.755Z,5.18
2019-03-15T06:30:13.824Z,5.10
2019-03-15T06:30:46.020Z,5.19
2019-03-15T06:31:17.207Z,5.19
2019-03-15T06:31:48.403Z,5.19
2019-03-15T06:32:19.583Z,5.10
2019-03-15T06:32:50.879Z,5.20
2019-03-15T06:33:22.194Z,5.20
2019-03-15T06:33:53.587Z,5.19
2019-03-15T06:34:24.768Z,5.19
2019-03-15T06:34:55.974Z,5.11
2019-03-15T06:35:27.171Z,5.18
2019-03-15T06:35:58.498Z,5.18
2019-03-15T06:36:29.779Z,5.09
2019-03-15T06:37:01.012Z,5.18
2019-03-15T06:37:32.187Z,5.19
2019-03-15T06:38:03.404Z,5.10
2019-03-15T06:38:34.583Z,5.10
2019-03-15T06:39:05.966Z,5.09
2019-03-15T06:39:37.222Z,5.21
2019-03-15T06:40:09.337Z,5.21
2019-03-15T06:40:40.519Z,5.20
2019-03-15T06:41:14.302Z,5.20
2019-03-15T06:41:44.784Z,5.19
2019-03-15T06:42:16.008Z,5.08
2019-03-15T06:42:47.159Z,5.08
2019-03-15T06:43:18.390Z,5.16
2019-03-15T06:43:50.552Z,5.16
2019-03-15T06:44:21.783Z,5.06
2019-03-15T06:44:58.014Z,5.09
2019-03-15T06:45:26.215Z,5.09
2019-03-15T06:45:57.382Z,5.17
2019-03-15T06:46:28.594Z,5.17
2019-03-15T06:46:59.760Z,5.17
2019-03-15T06:47:30.962Z,5.18
2019-03-15T06:48:02.158Z,5.20
2019-03-15T06:48:33.420Z,5.20
2019-03-15T06:49:04.580Z,5.20
2019-03-15T06:49:35.784Z,5.19
2019-03-15T06:50:07.148Z,5.08
2019-03-15T06:50:38.400Z,5.11
2019-03-15T06:51:09.661Z,5.11
2019-03-15T06:51:40.987Z,5.20
2019-03-15T06:52:12.232Z,5.23
2019-03-15T06:52:43.584Z,5.25
2019-03-15T06:53:14.834Z,5.27
2019-03-15T06:53:47.969Z,5.27
2019-03-15T06:54:19.230Z,5.28
2019-03-15T06:54:50.489Z,5.20
2019-03-15T06:55:21.697Z,5.20
2019-03-15T06:55:52.869Z,5.31
2019-03-15T06:56:24.198Z,5.31
2019-03-15T06:56:55.357Z,5.22
2019-03-15T06:57:26.762Z,5.29
2019-03-15T06:57:57.942Z,5.30